sensor_id;sensor_type;location;lat;lon;timestamp;temperature;humidity
3550;DHT22;45572;48.804;8.330;2022-10-22T00:00:59;14.60;96.80
3550;DHT22;45572;48.804;8.330;2022-10-22T00:03:28;14.50;96.80
3550;DHT22;45572;48.804;8.330;2022-10-22T00:05:56;14.50;96.80
3550;DHT22;45572;48.804;8.330;2022-10-22T00:08:24;14.50;96.80
3550;DHT22;45572;48.804;8.330;2022-10-22T00:10:53;14.50;96.80
3550;DHT22;45572;48.804;8.330;2022-10-22T00:13:21;14.40;96.80
3550;DHT22;45572;48.804;8.330;2022-10-22T00:15:49;14.40;96.80
3550;DHT22;45572;48.804;8.330;2022-10-22T00:18:16;14.40;96.80
3550;DHT22;45572;48.804;8.330;2022-10-22T00:20:45;14.30;96.80
3550;DHT22;45572;48.804;8.330;2022-10-22T00:23:13;14.30;96.80
3550;DHT22;45572;48.804;8.330;2022-10-22T00:25:41;14.20;96.80
3550;DHT22;45572;48.804;8.330;2022-10-22T00:28:09;14.20;96.80
3550;DHT22;45572;48.804;8.330;2022-10-22T00:30:38;14.30;96.80
3550;DHT22;45572;48.804;8.330;2022-10-22T00:33:05;14.40;96.80
3550;DHT22;45572;48.804;8.330;2022-10-22T00:35:34;14.40;96.80
3550;DHT22;45572;48.804;8.330;2022-10-22T00:38:03;14.40;96.80
3550;DHT22;45572;48.804;8.330;2022-10-22T00:40:30;14.40;96.80
3550;DHT22;45572;48.804;8.330;2022-10-22T00:42:58;14.40;96.80
3550;DHT22;45572;48.804;8.330;2022-10-22T00:45:27;14.50;96.80
3550;DHT22;45572;48.804;8.330;2022-10-22T00:47:57;14.50;96.80
3550;DHT22;45572;48.804;8.330;2022-10-22T00:50:29;14.50;96.80
3550;DHT22;45572;48.804;8.330;2022-10-22T00:52:58;14.50;96.80
3550;DHT22;45572;48.804;8.330;2022-10-22T00:55:28;14.50;96.80
3550;DHT22;45572;48.804;8.330;2022-10-22T00:57:57;14.50;96.80
3550;DHT22;45572;48.804;8.330;2022-10-22T01:00:25;14.50;96.80
3550;DHT22;45572;48.804;8.330;2022-10-22T01:02:53;14.60;96.80
3550;DHT22;45572;48.804;8.330;2022-10-22T01:05:22;14.60;96.80
3550;DHT22;45572;48.804;8.330;2022-10-22T01:07:53;14.60;96.80
3550;DHT22;45572;48.804;8.330;2022-10-22T01:10:33;14.60;96.80
3550;DHT22;45572;48.804;8.330;2022-10-22T01:13:15;14.50;96.80
3550;DHT22;45572;48.804;8.330;2022-10-22T01:15:47;14.50;96.80
3550;DHT22;45572;48.804;8.330;2022-10-22T01:18:22;14.60;96.80
3550;DHT22;45572;48.804;8.330;2022-10-22T01:21:02;14.70;96.80
3550;DHT22;45572;48.804;8.330;2022-10-22T01:26:27;14.70;96.80
3550;DHT22;45572;48.804;8.330;2022-10-22T01:29:01;14.80;96.80
3550;DHT22;45572;48.804;8.330;2022-10-22T01:31:35;14.80;96.80
3550;DHT22;45572;48.804;8.330;2022-10-22T01:34:06;14.80;96.80
3550;DHT22;45572;48.804;8.330;2022-10-22T01:36:35;14.90;96.80
3550;DHT22;45572;48.804;8.330;2022-10-22T01:39:04;14.90;96.80
3550;DHT22;45572;48.804;8.330;2022-10-22T01:41:33;15.00;96.80
3550;DHT22;45572;48.804;8.330;2022-10-22T01:44:03;15.00;96.80
3550;DHT22;45572;48.804;8.330;2022-10-22T01:46:31;15.00;96.80
3550;DHT22;45572;48.804;8.330;2022-10-22T01:49:09;15.00;96.80
3550;DHT22;45572;48.804;8.330;2022-10-22T01:51:50;15.00;96.80
3550;DHT22;45572;48.804;8.330;2022-10-22T01:54:29;15.00;96.80
3550;DHT22;45572;48.804;8.330;2022-10-22T01:57:07;15.00;96.80
3550;DHT22;45572;48.804;8.330;2022-10-22T01:59:44;15.00;96.80
3550;DHT22;45572;48.804;8.330;2022-10-22T02:02:23;14.90;96.80
3550;DHT22;45572;48.804;8.330;2022-10-22T02:04:56;14.70;96.80
3550;DHT22;45572;48.804;8.330;2022-10-22T02:07:28;14.70;96.80
3550;DHT22;45572;48.804;8.330;2022-10-22T02:09:59;14.70;96.80
3550;DHT22;45572;48.804;8.330;2022-10-22T02:12:28;14.60;96.80
3550;DHT22;45572;48.804;8.330;2022-10-22T02:14:59;14.60;96.80
3550;DHT22;45572;48.804;8.330;2022-10-22T02:17:30;14.60;96.80
3550;DHT22;45572;48.804;8.330;2022-10-22T02:20:01;14.70;96.80
3550;DHT22;45572;48.804;8.330;2022-10-22T02:22:30;14.70;96.80
3550;DHT22;45572;48.804;8.330;2022-10-22T02:24:58;14.70;96.80
3550;DHT22;45572;48.804;8.330;2022-10-22T02:27:28;14.80;96.80
3550;DHT22;45572;48.804;8.330;2022-10-22T02:30:02;14.80;96.80
3550;DHT22;45572;48.804;8.330;2022-10-22T02:32:35;14.80;96.80
3550;DHT22;45572;48.804;8.330;2022-10-22T02:35:06;14.80;96.80
3550;DHT22;45572;48.804;8.330;2022-10-22T02:37:35;14.80;96.80
3550;DHT22;45572;48.804;8.330;2022-10-22T02:40:03;14.90;96.80
3550;DHT22;45572;48.804;8.330;2022-10-22T02:42:33;14.90;96.80
3550;DHT22;45572;48.804;8.330;2022-10-22T02:45:04;14.90;96.80
3550;DHT22;45572;48.804;8.330;2022-10-22T02:47:32;14.80;96.80
3550;DHT22;45572;48.804;8.330;2022-10-22T02:50:03;14.80;96.80
3550;DHT22;45572;48.804;8.330;2022-10-22T02:52:36;14.80;96.80
3550;DHT22;45572;48.804;8.330;2022-10-22T02:55:05;14.70;96.80
3550;DHT22;45572;48.804;8.330;2022-10-22T02:57:33;14.80;96.80
3550;DHT22;45572;48.804;8.330;2022-10-22T03:00:03;14.80;96.80
3550;DHT22;45572;48.804;8.330;2022-10-22T03:02:35;14.90;96.80
3550;DHT22;45572;48.804;8.330;2022-10-22T03:05:03;14.80;96.80
3550;DHT22;45572;48.804;8.330;2022-10-22T03:07:31;14.80;96.80
3550;DHT22;45572;48.804;8.330;2022-10-22T03:09:59;14.90;96.80
3550;DHT22;45572;48.804;8.330;2022-10-22T03:12:27;14.80;96.80
3550;DHT22;45572;48.804;8.330;2022-10-22T03:14:55;14.70;96.80
3550;DHT22;45572;48.804;8.330;2022-10-22T03:17:24;14.70;96.80
3550;DHT22;45572;48.804;8.330;2022-10-22T03:19:52;14.80;96.80
3550;DHT22;45572;48.804;8.330;2022-10-22T03:22:22;14.80;96.80
3550;DHT22;45572;48.804;8.330;2022-10-22T03:25:06;14.80;96.80
3550;DHT22;45572;48.804;8.330;2022-10-22T03:27:36;14.80;96.80
3550;DHT22;45572;48.804;8.330;2022-10-22T03:30:07;14.80;96.80
3550;DHT22;45572;48.804;8.330;2022-10-22T03:32:36;14.60;96.80
3550;DHT22;45572;48.804;8.330;2022-10-22T03:35:04;14.60;96.80
3550;DHT22;45572;48.804;8.330;2022-10-22T03:37:33;14.60;96.80
3550;DHT22;45572;48.804;8.330;2022-10-22T03:40:02;14.60;96.80
3550;DHT22;45572;48.804;8.330;2022-10-22T03:42:31;14.60;96.80
3550;DHT22;45572;48.804;8.330;2022-10-22T03:44:59;14.60;96.80
3550;DHT22;45572;48.804;8.330;2022-10-22T03:47:26;14.50;96.80
3550;DHT22;45572;48.804;8.330;2022-10-22T03:49:55;14.50;96.80
3550;DHT22;45572;48.804;8.330;2022-10-22T03:52:23;14.30;96.80
3550;DHT22;45572;48.804;8.330;2022-10-22T03:54:51;14.30;96.80
3550;DHT22;45572;48.804;8.330;2022-10-22T03:57:18;14.20;96.80
3550;DHT22;45572;48.804;8.330;2022-10-22T03:59:46;14.20;96.80
3550;DHT22;45572;48.804;8.330;2022-10-22T04:02:14;14.20;96.80
3550;DHT22;45572;48.804;8.330;2022-10-22T04:04:42;14.30;96.80
3550;DHT22;45572;48.804;8.330;2022-10-22T04:07:11;14.30;96.80
3550;DHT22;45572;48.804;8.330;2022-10-22T04:09:38;14.40;96.80
3550;DHT22;45572;48.804;8.330;2022-10-22T04:12:06;14.40;96.80
3550;DHT22;45572;48.804;8.330;2022-10-22T04:14:35;14.50;96.80
3550;DHT22;45572;48.804;8.330;2022-10-22T04:17:03;14.50;96.80
3550;DHT22;45572;48.804;8.330;2022-10-22T04:19:30;14.50;96.80
3550;DHT22;45572;48.804;8.330;2022-10-22T04:21:58;14.50;96.80
3550;DHT22;45572;48.804;8.330;2022-10-22T04:24:29;14.40;96.80
3550;DHT22;45572;48.804;8.330;2022-10-22T04:26:57;14.30;96.80
3550;DHT22;45572;48.804;8.330;2022-10-22T04:29:26;14.30;96.80
3550;DHT22;45572;48.804;8.330;2022-10-22T04:31:53;14.30;96.80
3550;DHT22;45572;48.804;8.330;2022-10-22T04:34:21;14.30;96.80
3550;DHT22;45572;48.804;8.330;2022-10-22T04:36:49;14.40;96.80
3550;DHT22;45572;48.804;8.330;2022-10-22T04:39:16;14.40;96.80
3550;DHT22;45572;48.804;8.330;2022-10-22T04:41:45;14.50;96.80
3550;DHT22;45572;48.804;8.330;2022-10-22T04:44:13;14.50;96.80
3550;DHT22;45572;48.804;8.330;2022-10-22T04:46:43;14.50;96.80
3550;DHT22;45572;48.804;8.330;2022-10-22T04:49:11;14.50;96.80
3550;DHT22;45572;48.804;8.330;2022-10-22T04:51:39;14.50;96.80
3550;DHT22;45572;48.804;8.330;2022-10-22T04:54:12;14.50;96.80
3550;DHT22;45572;48.804;8.330;2022-10-22T04:56:40;14.50;96.80
3550;DHT22;45572;48.804;8.330;2022-10-22T04:59:13;14.50;96.80
3550;DHT22;45572;48.804;8.330;2022-10-22T05:01:43;14.40;96.80
3550;DHT22;45572;48.804;8.330;2022-10-22T05:04:12;14.40;96.80
3550;DHT22;45572;48.804;8.330;2022-10-22T05:06:42;14.40;96.80
3550;DHT22;45572;48.804;8.330;2022-10-22T05:09:12;14.30;96.80
3550;DHT22;45572;48.804;8.330;2022-10-22T05:11:41;14.30;96.80
3550;DHT22;45572;48.804;8.330;2022-10-22T05:14:14;14.20;96.80
3550;DHT22;45572;48.804;8.330;2022-10-22T05:16:43;14.10;96.80
3550;DHT22;45572;48.804;8.330;2022-10-22T05:19:16;14.10;96.80
3550;DHT22;45572;48.804;8.330;2022-10-22T05:21:44;14.10;96.80
3550;DHT22;45572;48.804;8.330;2022-10-22T05:24:12;14.10;96.80
3550;DHT22;45572;48.804;8.330;2022-10-22T05:26:40;14.10;96.80
3550;DHT22;45572;48.804;8.330;2022-10-22T05:29:08;14.20;96.80
3550;DHT22;45572;48.804;8.330;2022-10-22T05:31:37;14.20;96.80
3550;DHT22;45572;48.804;8.330;2022-10-22T05:34:06;14.10;96.80
3550;DHT22;45572;48.804;8.330;2022-10-22T05:36:34;14.10;96.80
3550;DHT22;45572;48.804;8.330;2022-10-22T05:39:05;14.10;96.80
3550;DHT22;45572;48.804;8.330;2022-10-22T05:41:34;14.10;96.80
3550;DHT22;45572;48.804;8.330;2022-10-22T05:44:03;14.20;96.80
3550;DHT22;45572;48.804;8.330;2022-10-22T05:46:34;14.20;96.80
3550;DHT22;45572;48.804;8.330;2022-10-22T05:49:04;14.20;96.80
3550;DHT22;45572;48.804;8.330;2022-10-22T05:51:34;14.10;96.80
3550;DHT22;45572;48.804;8.330;2022-10-22T05:54:05;14.10;96.80
3550;DHT22;45572;48.804;8.330;2022-10-22T05:56:34;14.10;96.80
3550;DHT22;45572;48.804;8.330;2022-10-22T05:59:02;14.20;96.80
3550;DHT22;45572;48.804;8.330;2022-10-22T06:01:32;14.20;96.80
3550;DHT22;45572;48.804;8.330;2022-10-22T06:04:04;14.10;96.80
3550;DHT22;45572;48.804;8.330;2022-10-22T06:06:33;14.20;96.80
3550;DHT22;45572;48.804;8.330;2022-10-22T06:09:04;14.20;96.80
3550;DHT22;45572;48.804;8.330;2022-10-22T06:11:33;14.20;96.80
3550;DHT22;45572;48.804;8.330;2022-10-22T06:14:01;14.10;96.80
3550;DHT22;45572;48.804;8.330;2022-10-22T06:16:29;14.10;96.80
3550;DHT22;45572;48.804;8.330;2022-10-22T06:19:00;14.10;96.80
3550;DHT22;45572;48.804;8.330;2022-10-22T06:21:30;14.10;96.80
3550;DHT22;45572;48.804;8.330;2022-10-22T06:23:59;14.10;96.80
3550;DHT22;45572;48.804;8.330;2022-10-22T06:26:27;14.00;96.80
3550;DHT22;45572;48.804;8.330;2022-10-22T06:28:55;13.90;96.80
3550;DHT22;45572;48.804;8.330;2022-10-22T06:31:25;13.90;96.80
3550;DHT22;45572;48.804;8.330;2022-10-22T06:33:53;13.80;96.80
3550;DHT22;45572;48.804;8.330;2022-10-22T06:36:22;13.80;96.80
3550;DHT22;45572;48.804;8.330;2022-10-22T06:38:53;13.80;96.80
3550;DHT22;45572;48.804;8.330;2022-10-22T06:41:22;13.90;96.80
3550;DHT22;45572;48.804;8.330;2022-10-22T06:43:55;13.90;96.80
3550;DHT22;45572;48.804;8.330;2022-10-22T06:46:24;13.90;96.80
3550;DHT22;45572;48.804;8.330;2022-10-22T06:48:55;13.90;96.80
3550;DHT22;45572;48.804;8.330;2022-10-22T06:51:24;13.90;96.80
3550;DHT22;45572;48.804;8.330;2022-10-22T06:53:53;13.90;96.80
3550;DHT22;45572;48.804;8.330;2022-10-22T06:56:23;14.00;96.80
3550;DHT22;45572;48.804;8.330;2022-10-22T06:58:54;14.00;96.80
3550;DHT22;45572;48.804;8.330;2022-10-22T07:01:24;14.00;96.80
3550;DHT22;45572;48.804;8.330;2022-10-22T07:03:53;14.10;96.80
3550;DHT22;45572;48.804;8.330;2022-10-22T07:06:22;14.00;96.80
3550;DHT22;45572;48.804;8.330;2022-10-22T07:08:50;14.00;96.80
3550;DHT22;45572;48.804;8.330;2022-10-22T07:11:21;14.00;96.80
3550;DHT22;45572;48.804;8.330;2022-10-22T07:13:50;14.10;96.80
3550;DHT22;45572;48.804;8.330;2022-10-22T07:16:18;14.30;96.80
3550;DHT22;45572;48.804;8.330;2022-10-22T07:18:46;14.60;96.80
3550;DHT22;45572;48.804;8.330;2022-10-22T07:21:16;15.00;96.80
3550;DHT22;45572;48.804;8.330;2022-10-22T07:23:46;15.00;96.80
3550;DHT22;45572;48.804;8.330;2022-10-22T07:26:15;15.00;96.80
3550;DHT22;45572;48.804;8.330;2022-10-22T07:28:44;15.20;96.70
3550;DHT22;45572;48.804;8.330;2022-10-22T07:31:13;15.30;96.00
3550;DHT22;45572;48.804;8.330;2022-10-22T07:33:41;15.40;95.50
3550;DHT22;45572;48.804;8.330;2022-10-22T07:36:11;15.50;95.80
3550;DHT22;45572;48.804;8.330;2022-10-22T07:38:43;15.60;95.50
3550;DHT22;45572;48.804;8.330;2022-10-22T07:41:12;15.70;95.00
3550;DHT22;45572;48.804;8.330;2022-10-22T07:43:40;16.10;95.30
3550;DHT22;45572;48.804;8.330;2022-10-22T07:46:09;16.70;94.40
3550;DHT22;45572;48.804;8.330;2022-10-22T07:48:37;17.30;92.30
3550;DHT22;45572;48.804;8.330;2022-10-22T07:51:05;17.80;90.80
3550;DHT22;45572;48.804;8.330;2022-10-22T07:53:33;18.40;89.20
3550;DHT22;45572;48.804;8.330;2022-10-22T07:56:01;19.50;87.30
3550;DHT22;45572;48.804;8.330;2022-10-22T07:58:29;19.80;84.30
3550;DHT22;45572;48.804;8.330;2022-10-22T08:00:58;20.60;83.50
3550;DHT22;45572;48.804;8.330;2022-10-22T08:03:28;21.10;80.40
3550;DHT22;45572;48.804;8.330;2022-10-22T08:05:57;22.00;78.50
3550;DHT22;45572;48.804;8.330;2022-10-22T08:08:25;22.90;76.00
3550;DHT22;45572;48.804;8.330;2022-10-22T08:10:57;22.90;75.50
3550;DHT22;45572;48.804;8.330;2022-10-22T08:13:26;23.70;73.60
3550;DHT22;45572;48.804;8.330;2022-10-22T08:15:58;24.50;70.30
3550;DHT22;45572;48.804;8.330;2022-10-22T08:18:28;24.90;69.50
3550;DHT22;45572;48.804;8.330;2022-10-22T08:20:57;24.40;69.80
3550;DHT22;45572;48.804;8.330;2022-10-22T08:23:25;24.00;71.20
3550;DHT22;45572;48.804;8.330;2022-10-22T08:26:00;23.30;71.20
3550;DHT22;45572;48.804;8.330;2022-10-22T08:28:28;22.80;73.90
3550;DHT22;45572;48.804;8.330;2022-10-22T08:31:01;22.60;76.20
3550;DHT22;45572;48.804;8.330;2022-10-22T08:33:30;22.50;77.00
3550;DHT22;45572;48.804;8.330;2022-10-22T08:35:58;22.70;77.40
3550;DHT22;45572;48.804;8.330;2022-10-22T08:38:26;23.10;76.70
3550;DHT22;45572;48.804;8.330;2022-10-22T08:40:59;22.70;76.70
3550;DHT22;45572;48.804;8.330;2022-10-22T08:43:40;22.90;77.00
3550;DHT22;45572;48.804;8.330;2022-10-22T08:46:21;23.80;76.20
3550;DHT22;45572;48.804;8.330;2022-10-22T08:48:57;24.50;72.90
3550;DHT22;45572;48.804;8.330;2022-10-22T08:51:32;25.10;70.50
3550;DHT22;45572;48.804;8.330;2022-10-22T08:54:12;25.10;71.00
3550;DHT22;45572;48.804;8.330;2022-10-22T08:56:44;25.50;71.20
3550;DHT22;45572;48.804;8.330;2022-10-22T08:59:18;25.70;68.90
3550;DHT22;45572;48.804;8.330;2022-10-22T09:01:48;25.10;70.30
3550;DHT22;45572;48.804;8.330;2022-10-22T09:04:23;24.90;71.50
3550;DHT22;45572;48.804;8.330;2022-10-22T09:06:54;24.00;73.00
3550;DHT22;45572;48.804;8.330;2022-10-22T09:09:32;23.80;74.20
3550;DHT22;45572;48.804;8.330;2022-10-22T09:12:04;23.70;75.30
3550;DHT22;45572;48.804;8.330;2022-10-22T09:14:32;23.40;76.80
3550;DHT22;45572;48.804;8.330;2022-10-22T09:17:17;23.40;76.30
3550;DHT22;45572;48.804;8.330;2022-10-22T09:19:57;23.20;76.60
3550;DHT22;45572;48.804;8.330;2022-10-22T09:22:33;23.00;77.70
3550;DHT22;45572;48.804;8.330;2022-10-22T09:25:13;22.70;78.80
3550;DHT22;45572;48.804;8.330;2022-10-22T09:27:42;22.70;79.60
3550;DHT22;45572;48.804;8.330;2022-10-22T09:30:14;23.10;79.60
3550;DHT22;45572;48.804;8.330;2022-10-22T09:32:42;22.70;81.10
3550;DHT22;45572;48.804;8.330;2022-10-22T09:35:13;23.00;80.60
3550;DHT22;45572;48.804;8.330;2022-10-22T09:37:48;23.50;78.70
3550;DHT22;45572;48.804;8.330;2022-10-22T09:40:16;23.90;78.70
3550;DHT22;45572;48.804;8.330;2022-10-22T09:42:45;24.10;74.80
3550;DHT22;45572;48.804;8.330;2022-10-22T09:45:18;24.20;72.40
3550;DHT22;45572;48.804;8.330;2022-10-22T09:48:02;24.30;72.30
3550;DHT22;45572;48.804;8.330;2022-10-22T09:50:40;25.00;71.10
3550;DHT22;45572;48.804;8.330;2022-10-22T09:53:13;25.50;70.00
3550;DHT22;45572;48.804;8.330;2022-10-22T09:55:52;26.00;67.10
3550;DHT22;45572;48.804;8.330;2022-10-22T09:58:25;26.70;64.40
3550;DHT22;45572;48.804;8.330;2022-10-22T10:00:56;27.40;63.50
3550;DHT22;45572;48.804;8.330;2022-10-22T10:03:25;28.10;60.30
3550;DHT22;45572;48.804;8.330;2022-10-22T10:05:57;28.70;59.20
3550;DHT22;45572;48.804;8.330;2022-10-22T10:08:32;28.40;60.00
3550;DHT22;45572;48.804;8.330;2022-10-22T10:11:04;27.90;61.40
3550;DHT22;45572;48.804;8.330;2022-10-22T10:13:45;27.20;62.20
3550;DHT22;45572;48.804;8.330;2022-10-22T10:16:31;26.40;64.40
3550;DHT22;45572;48.804;8.330;2022-10-22T10:19:18;25.70;66.80
3550;DHT22;45572;48.804;8.330;2022-10-22T10:22:00;25.00;68.90
3550;DHT22;45572;48.804;8.330;2022-10-22T10:24:36;24.30;70.10
3550;DHT22;45572;48.804;8.330;2022-10-22T10:27:14;24.10;71.70
3550;DHT22;45572;48.804;8.330;2022-10-22T10:29:59;24.00;71.30
3550;DHT22;45572;48.804;8.330;2022-10-22T10:32:39;24.70;71.30
3550;DHT22;45572;48.804;8.330;2022-10-22T10:35:18;25.40;68.90
3550;DHT22;45572;48.804;8.330;2022-10-22T10:38:05;25.80;67.50
3550;DHT22;45572;48.804;8.330;2022-10-22T10:40:41;25.90;66.30
3550;DHT22;45572;48.804;8.330;2022-10-22T10:43:15;25.50;66.40
3550;DHT22;45572;48.804;8.330;2022-10-22T10:45:53;25.00;67.80
3550;DHT22;45572;48.804;8.330;2022-10-22T10:48:43;24.30;67.60
3550;DHT22;45572;48.804;8.330;2022-10-22T10:51:24;23.00;70.80
3550;DHT22;45572;48.804;8.330;2022-10-22T10:54:17;22.90;72.40
3550;DHT22;45572;48.804;8.330;2022-10-22T10:56:53;22.60;71.60
3550;DHT22;45572;48.804;8.330;2022-10-22T10:59:31;22.70;74.90
3550;DHT22;45572;48.804;8.330;2022-10-22T11:02:17;23.00;73.20
3550;DHT22;45572;48.804;8.330;2022-10-22T11:05:11;23.20;71.70
3550;DHT22;45572;48.804;8.330;2022-10-22T11:07:45;23.50;70.10
3550;DHT22;45572;48.804;8.330;2022-10-22T11:10:27;23.80;68.60
3550;DHT22;45572;48.804;8.330;2022-10-22T11:13:04;24.40;67.10
3550;DHT22;45572;48.804;8.330;2022-10-22T11:15:36;24.50;65.10
3550;DHT22;45572;48.804;8.330;2022-10-22T11:18:13;25.10;67.00
3550;DHT22;45572;48.804;8.330;2022-10-22T11:20:49;25.80;64.90
3550;DHT22;45572;48.804;8.330;2022-10-22T11:23:24;27.00;62.20
3550;DHT22;45572;48.804;8.330;2022-10-22T11:25:55;27.70;58.30
3550;DHT22;45572;48.804;8.330;2022-10-22T11:28:27;26.90;57.10
3550;DHT22;45572;48.804;8.330;2022-10-22T11:31:00;26.70;59.40
3550;DHT22;45572;48.804;8.330;2022-10-22T11:33:36;25.80;60.60
3550;DHT22;45572;48.804;8.330;2022-10-22T11:36:09;24.70;61.60
3550;DHT22;45572;48.804;8.330;2022-10-22T11:38:43;24.10;64.50
3550;DHT22;45572;48.804;8.330;2022-10-22T11:41:15;23.90;67.20
3550;DHT22;45572;48.804;8.330;2022-10-22T11:44:04;23.70;67.30
3550;DHT22;45572;48.804;8.330;2022-10-22T11:46:38;23.30;69.60
3550;DHT22;45572;48.804;8.330;2022-10-22T11:49:18;22.90;71.60
3550;DHT22;45572;48.804;8.330;2022-10-22T11:51:51;22.80;68.80
3550;DHT22;45572;48.804;8.330;2022-10-22T11:54:40;22.80;71.20
3550;DHT22;45572;48.804;8.330;2022-10-22T11:57:19;22.70;71.20
3550;DHT22;45572;48.804;8.330;2022-10-22T11:59:50;22.70;71.60
3550;DHT22;45572;48.804;8.330;2022-10-22T12:02:23;22.60;68.00
3550;DHT22;45572;48.804;8.330;2022-10-22T12:04:51;22.50;71.40
3550;DHT22;45572;48.804;8.330;2022-10-22T12:07:38;22.40;68.90
3550;DHT22;45572;48.804;8.330;2022-10-22T12:10:18;22.30;69.60
3550;DHT22;45572;48.804;8.330;2022-10-22T12:12:55;22.20;71.30
3550;DHT22;45572;48.804;8.330;2022-10-22T12:15:26;22.20;70.40
3550;DHT22;45572;48.804;8.330;2022-10-22T12:17:59;22.10;68.30
3550;DHT22;45572;48.804;8.330;2022-10-22T12:20:27;22.10;66.90
3550;DHT22;45572;48.804;8.330;2022-10-22T12:22:57;22.00;68.20
3550;DHT22;45572;48.804;8.330;2022-10-22T12:25:30;22.00;69.70
3550;DHT22;45572;48.804;8.330;2022-10-22T12:28:03;22.00;63.80
3550;DHT22;45572;48.804;8.330;2022-10-22T12:30:32;22.10;65.80
3550;DHT22;45572;48.804;8.330;2022-10-22T12:33:03;22.10;66.00
3550;DHT22;45572;48.804;8.330;2022-10-22T12:35:32;22.10;67.00
3550;DHT22;45572;48.804;8.330;2022-10-22T12:38:06;22.10;68.20
3550;DHT22;45572;48.804;8.330;2022-10-22T12:40:35;22.10;69.50
3550;DHT22;45572;48.804;8.330;2022-10-22T12:43:10;22.10;69.70
3550;DHT22;45572;48.804;8.330;2022-10-22T12:45:44;22.10;65.60
3550;DHT22;45572;48.804;8.330;2022-10-22T12:48:16;22.10;60.40
3550;DHT22;45572;48.804;8.330;2022-10-22T12:50:48;22.00;61.10
3550;DHT22;45572;48.804;8.330;2022-10-22T12:53:18;22.00;63.90
3550;DHT22;45572;48.804;8.330;2022-10-22T12:55:50;21.90;62.60
3550;DHT22;45572;48.804;8.330;2022-10-22T12:58:26;21.90;64.50
3550;DHT22;45572;48.804;8.330;2022-10-22T13:00:58;22.00;67.40
3550;DHT22;45572;48.804;8.330;2022-10-22T13:03:31;21.90;67.90
3550;DHT22;45572;48.804;8.330;2022-10-22T13:06:11;21.90;65.40
3550;DHT22;45572;48.804;8.330;2022-10-22T13:08:39;22.00;67.00
3550;DHT22;45572;48.804;8.330;2022-10-22T13:11:10;22.00;64.30
3550;DHT22;45572;48.804;8.330;2022-10-22T13:13:43;22.00;64.20
3550;DHT22;45572;48.804;8.330;2022-10-22T13:16:14;21.90;63.00
3550;DHT22;45572;48.804;8.330;2022-10-22T13:18:42;21.90;66.60
3550;DHT22;45572;48.804;8.330;2022-10-22T13:21:23;21.80;67.00
3550;DHT22;45572;48.804;8.330;2022-10-22T13:23:53;21.90;65.60
3550;DHT22;45572;48.804;8.330;2022-10-22T13:26:23;21.90;64.60
3550;DHT22;45572;48.804;8.330;2022-10-22T13:28:55;21.80;64.50
3550;DHT22;45572;48.804;8.330;2022-10-22T13:31:24;21.80;67.20
3550;DHT22;45572;48.804;8.330;2022-10-22T13:33:55;21.90;65.60
3550;DHT22;45572;48.804;8.330;2022-10-22T13:36:23;21.90;68.40
3550;DHT22;45572;48.804;8.330;2022-10-22T13:38:51;22.00;69.60
3550;DHT22;45572;48.804;8.330;2022-10-22T13:41:21;22.00;65.30
3550;DHT22;45572;48.804;8.330;2022-10-22T13:43:50;22.00;65.90
3550;DHT22;45572;48.804;8.330;2022-10-22T13:46:20;22.00;65.40
3550;DHT22;45572;48.804;8.330;2022-10-22T13:48:50;21.90;62.20
3550;DHT22;45572;48.804;8.330;2022-10-22T13:51:20;21.90;62.80
3550;DHT22;45572;48.804;8.330;2022-10-22T13:53:53;21.90;66.90
3550;DHT22;45572;48.804;8.330;2022-10-22T13:56:21;21.80;65.00
3550;DHT22;45572;48.804;8.330;2022-10-22T13:58:49;21.70;65.50
3550;DHT22;45572;48.804;8.330;2022-10-22T14:01:21;21.70;66.20
3550;DHT22;45572;48.804;8.330;2022-10-22T14:03:52;21.60;64.40
3550;DHT22;45572;48.804;8.330;2022-10-22T14:06:21;21.70;63.30
3550;DHT22;45572;48.804;8.330;2022-10-22T14:08:53;21.70;65.60
3550;DHT22;45572;48.804;8.330;2022-10-22T14:11:23;21.70;64.80
3550;DHT22;45572;48.804;8.330;2022-10-22T14:13:52;21.70;63.90
3550;DHT22;45572;48.804;8.330;2022-10-22T14:16:23;21.70;65.10
3550;DHT22;45572;48.804;8.330;2022-10-22T14:18:55;21.60;63.30
3550;DHT22;45572;48.804;8.330;2022-10-22T14:21:24;21.50;64.00
3550;DHT22;45572;48.804;8.330;2022-10-22T14:23:52;21.50;63.80
3550;DHT22;45572;48.804;8.330;2022-10-22T14:26:22;21.50;60.80
3550;DHT22;45572;48.804;8.330;2022-10-22T14:28:50;21.50;63.20
3550;DHT22;45572;48.804;8.330;2022-10-22T14:31:40;21.50;63.40
3550;DHT22;45572;48.804;8.330;2022-10-22T14:34:11;21.40;63.80
3550;DHT22;45572;48.804;8.330;2022-10-22T14:36:39;21.40;63.20
3550;DHT22;45572;48.804;8.330;2022-10-22T14:39:10;21.30;64.10
3550;DHT22;45572;48.804;8.330;2022-10-22T14:41:38;21.30;63.10
3550;DHT22;45572;48.804;8.330;2022-10-22T14:44:11;21.30;62.10
3550;DHT22;45572;48.804;8.330;2022-10-22T14:46:43;21.50;66.00
3550;DHT22;45572;48.804;8.330;2022-10-22T14:49:12;21.60;65.60
3550;DHT22;45572;48.804;8.330;2022-10-22T14:51:40;21.80;66.10
3550;DHT22;45572;48.804;8.330;2022-10-22T14:54:08;22.00;64.10
3550;DHT22;45572;48.804;8.330;2022-10-22T14:56:36;22.10;64.70
3550;DHT22;45572;48.804;8.330;2022-10-22T14:59:04;22.30;72.10
3550;DHT22;45572;48.804;8.330;2022-10-22T15:01:32;22.10;76.50
3550;DHT22;45572;48.804;8.330;2022-10-22T15:04:01;22.00;74.10
3550;DHT22;45572;48.804;8.330;2022-10-22T15:06:28;21.90;75.60
3550;DHT22;45572;48.804;8.330;2022-10-22T15:08:56;21.70;77.00
3550;DHT22;45572;48.804;8.330;2022-10-22T15:11:24;21.50;78.00
3550;DHT22;45572;48.804;8.330;2022-10-22T15:13:52;21.40;79.00
3550;DHT22;45572;48.804;8.330;2022-10-22T15:16:20;21.20;79.30
3550;DHT22;45572;48.804;8.330;2022-10-22T15:18:47;20.90;80.40
3550;DHT22;45572;48.804;8.330;2022-10-22T15:21:18;20.80;81.50
3550;DHT22;45572;48.804;8.330;2022-10-22T15:23:46;20.50;81.70
3550;DHT22;45572;48.804;8.330;2022-10-22T15:26:15;20.40;82.10
3550;DHT22;45572;48.804;8.330;2022-10-22T15:28:44;20.20;82.10
3550;DHT22;45572;48.804;8.330;2022-10-22T15:31:16;20.10;82.80
3550;DHT22;45572;48.804;8.330;2022-10-22T15:34:06;19.90;83.60
3550;DHT22;45572;48.804;8.330;2022-10-22T15:36:35;19.60;83.60
3550;DHT22;45572;48.804;8.330;2022-10-22T15:39:06;19.40;84.80
3550;DHT22;45572;48.804;8.330;2022-10-22T15:41:35;19.40;85.60
3550;DHT22;45572;48.804;8.330;2022-10-22T15:44:03;19.20;85.40
3550;DHT22;45572;48.804;8.330;2022-10-22T15:46:32;18.90;85.80
3550;DHT22;45572;48.804;8.330;2022-10-22T15:49:01;18.80;86.40
3550;DHT22;45572;48.804;8.330;2022-10-22T15:51:29;18.70;87.30
3550;DHT22;45572;48.804;8.330;2022-10-22T15:53:58;18.50;87.70
3550;DHT22;45572;48.804;8.330;2022-10-22T15:56:27;18.40;87.70
3550;DHT22;45572;48.804;8.330;2022-10-22T15:58:57;18.30;87.80
3550;DHT22;45572;48.804;8.330;2022-10-22T16:01:26;18.20;88.00
3550;DHT22;45572;48.804;8.330;2022-10-22T16:03:54;18.00;88.60
3550;DHT22;45572;48.804;8.330;2022-10-22T16:06:29;18.00;89.10
3550;DHT22;45572;48.804;8.330;2022-10-22T16:09:00;17.90;89.20
3550;DHT22;45572;48.804;8.330;2022-10-22T16:11:28;17.80;89.60
3550;DHT22;45572;48.804;8.330;2022-10-22T16:13:57;17.70;89.50